This is the latest recevied weather packets stored in our database for station/object SQ5OUZ-1. If no packets are shown the sender has not sent any weather packets the latest 10 day(s).
| Time | Temp. | Humidity | Pressure | Rain* | Wind** | Luminosity | Snow |
|---|---|---|---|---|---|---|---|
| 1777890391 | 28.89° C | 19% | 1014.8 hPa | - | - | - | - |
| 1777889488 | 30° C | 17% | 1015 hPa | - | - | - | - |
| 1777888585 | 30.56° C | 17% | 1015.1 hPa | - | - | - | - |
| 1777887682 | 31.67° C | 16% | 1015.4 hPa | - | - | - | - |
| 1777886778 | 31.67° C | 17% | 1015.5 hPa | - | - | - | - |
| 1777885875 | 31.67° C | 17% | 1015.6 hPa | - | - | - | - |
| 1777884972 | 30.56° C | 17% | 1015.7 hPa | - | - | - | - |
| 1777884069 | 28.33° C | 20% | 1015.8 hPa | - | - | - | - |
| 1777883165 | 29.44° C | 19% | 1015.8 hPa | - | - | - | - |
| 1777882262 | 30° C | 18% | 1015.8 hPa | - | - | - | - |
| 1777881359 | 29.44° C | 18% | 1015.7 hPa | - | - | - | - |
| 1777880456 | 28.89° C | 18% | 1015.8 hPa | - | - | - | - |
| 1777879552 | 28.33° C | 19% | 1015.9 hPa | - | - | - | - |
| 1777878649 | 28.89° C | 18% | 1016 hPa | - | - | - | - |
| 1777877746 | 27.22° C | 19% | 1016 hPa | - | - | - | - |
| 1777876843 | 28.89° C | 18% | 1016.1 hPa | - | - | - | - |
| 1777875940 | 28.33° C | 19% | 1016 hPa | - | - | - | - |
| 1777875036 | 27.22° C | 20% | 1016 hPa | - | - | - | - |
| 1777874133 | 26.11° C | 21% | 1015.9 hPa | - | - | - | - |
| 1777873229 | 25.56° C | 22% | 1015.9 hPa | - | - | - | - |
| 1777872326 | 25° C | 23% | 1015.8 hPa | - | - | - | - |
| 1777871423 | 23.33° C | 26% | 1015.9 hPa | - | - | - | - |
| 1777870520 | 21.67° C | 30% | 1016 hPa | - | - | - | - |
| 1777869616 | 18.89° C | 35% | 1016 hPa | - | - | - | - |
| 1777868713 | 16.67° C | 39% | 1015.8 hPa | - | - | - | - |
* Rain since midnight (hover to see other rain measurements)
** Current wind speed in m/s (hover to see current wind gust speed)